sensor_id;sensor_type;location;lat;lon;timestamp;P1;durP1;ratioP1;P2;durP2;ratioP2
69981;SDS011;57319;56.274;43.980;2022-09-01T00:00:06;7.85;;;4.32;;
69981;SDS011;57319;56.274;43.980;2022-09-01T00:02:35;10.80;;;4.88;;
69981;SDS011;57319;56.274;43.980;2022-09-01T00:05:01;14.27;;;5.82;;
69981;SDS011;57319;56.274;43.980;2022-09-01T00:07:29;13.77;;;6.22;;
69981;SDS011;57319;56.274;43.980;2022-09-01T00:09:55;15.73;;;7.00;;
69981;SDS011;57319;56.274;43.980;2022-09-01T00:12:21;15.05;;;6.93;;
69981;SDS011;57319;56.274;43.980;2022-09-01T00:14:49;14.50;;;6.25;;
69981;SDS011;57319;56.274;43.980;2022-09-01T00:17:15;12.90;;;5.80;;
69981;SDS011;57319;56.274;43.980;2022-09-01T00:19:41;11.95;;;5.60;;
69981;SDS011;57319;56.274;43.980;2022-09-01T00:22:07;14.35;;;5.25;;
69981;SDS011;57319;56.274;43.980;2022-09-01T00:24:33;5.25;;;4.15;;
69981;SDS011;57319;56.274;43.980;2022-09-01T00:26:59;8.05;;;5.82;;
69981;SDS011;57319;56.274;43.980;2022-09-01T00:29:24;10.68;;;5.18;;
69981;SDS011;57319;56.274;43.980;2022-09-01T00:31:50;17.73;;;6.25;;
69981;SDS011;57319;56.274;43.980;2022-09-01T00:34:17;15.30;;;7.05;;
69981;SDS011;57319;56.274;43.980;2022-09-01T00:36:43;22.50;;;7.43;;
69981;SDS011;57319;56.274;43.980;2022-09-01T00:39:09;15.82;;;8.25;;
69981;SDS011;57319;56.274;43.980;2022-09-01T00:41:36;22.63;;;8.40;;
69981;SDS011;57319;56.274;43.980;2022-09-01T00:44:05;16.65;;;7.53;;
69981;SDS011;57319;56.274;43.980;2022-09-01T00:46:35;14.73;;;7.35;;
69981;SDS011;57319;56.274;43.980;2022-09-01T00:51:46;8.25;;;5.75;;
69981;SDS011;57319;56.274;43.980;2022-09-01T00:54:17;9.02;;;5.40;;
69981;SDS011;57319;56.274;43.980;2022-09-01T00:56:46;11.05;;;5.13;;
69981;SDS011;57319;56.274;43.980;2022-09-01T00:59:13;12.48;;;5.22;;
69981;SDS011;57319;56.274;43.980;2022-09-01T01:01:41;4.60;;;4.18;;
69981;SDS011;57319;56.274;43.980;2022-09-01T01:04:07;5.35;;;3.72;;
69981;SDS011;57319;56.274;43.980;2022-09-01T01:06:42;9.48;;;3.00;;
69981;SDS011;57319;56.274;43.980;2022-09-01T01:09:16;6.75;;;3.58;;
69981;SDS011;57319;56.274;43.980;2022-09-01T01:11:44;23.75;;;5.15;;
69981;SDS011;57319;56.274;43.980;2022-09-01T01:14:11;8.30;;;3.80;;
69981;SDS011;57319;56.274;43.980;2022-09-01T01:16:40;7.38;;;3.70;;
69981;SDS011;57319;56.274;43.980;2022-09-01T01:19:10;3.97;;;3.58;;
69981;SDS011;57319;56.274;43.980;2022-09-01T01:22:07;7.45;;;3.50;;
69981;SDS011;57319;56.274;43.980;2022-09-01T01:24:56;4.47;;;2.75;;
69981;SDS011;57319;56.274;43.980;2022-09-01T01:27:22;7.35;;;2.50;;
69981;SDS011;57319;56.274;43.980;2022-09-01T01:29:48;7.10;;;2.78;;
69981;SDS011;57319;56.274;43.980;2022-09-01T01:32:17;5.90;;;2.90;;
69981;SDS011;57319;56.274;43.980;2022-09-01T01:34:43;8.48;;;2.72;;
69981;SDS011;57319;56.274;43.980;2022-09-01T01:37:11;5.38;;;3.00;;
69981;SDS011;57319;56.274;43.980;2022-09-01T01:39:41;7.10;;;2.70;;
69981;SDS011;57319;56.274;43.980;2022-09-01T01:42:08;4.18;;;2.08;;
69981;SDS011;57319;56.274;43.980;2022-09-01T01:44:35;5.38;;;2.00;;
69981;SDS011;57319;56.274;43.980;2022-09-01T01:47:03;1.90;;;1.80;;
69981;SDS011;57319;56.274;43.980;2022-09-01T01:49:33;1.80;;;1.70;;
69981;SDS011;57319;56.274;43.980;2022-09-01T01:51:59;2.58;;;1.63;;
69981;SDS011;57319;56.274;43.980;2022-09-01T01:54:26;1.85;;;1.40;;
69981;SDS011;57319;56.274;43.980;2022-09-01T01:56:57;4.28;;;1.52;;
69981;SDS011;57319;56.274;43.980;2022-09-01T01:59:28;10.57;;;1.10;;
69981;SDS011;57319;56.274;43.980;2022-09-01T02:01:54;1.63;;;1.10;;
69981;SDS011;57319;56.274;43.980;2022-09-01T02:04:21;1.42;;;1.00;;
69981;SDS011;57319;56.274;43.980;2022-09-01T02:06:47;7.95;;;0.80;;
69981;SDS011;57319;56.274;43.980;2022-09-01T02:09:15;0.80;;;0.80;;
69981;SDS011;57319;56.274;43.980;2022-09-01T02:11:42;2.08;;;1.05;;
69981;SDS011;57319;56.274;43.980;2022-09-01T02:14:08;0.85;;;0.85;;
69981;SDS011;57319;56.274;43.980;2022-09-01T02:16:34;3.10;;;0.63;;
69981;SDS011;57319;56.274;43.980;2022-09-01T02:19:01;0.65;;;0.65;;
69981;SDS011;57319;56.274;43.980;2022-09-01T02:21:29;0.63;;;0.63;;
69981;SDS011;57319;56.274;43.980;2022-09-01T02:23:58;3.92;;;0.80;;
69981;SDS011;57319;56.274;43.980;2022-09-01T02:26:30;3.50;;;0.68;;
69981;SDS011;57319;56.274;43.980;2022-09-01T02:28:59;2.08;;;0.40;;
69981;SDS011;57319;56.274;43.980;2022-09-01T02:31:29;5.93;;;0.75;;
69981;SDS011;57319;56.274;43.980;2022-09-01T02:34:06;1.52;;;0.77;;
69981;SDS011;57319;56.274;43.980;2022-09-01T02:36:35;1.98;;;0.90;;
69981;SDS011;57319;56.274;43.980;2022-09-01T02:39:15;1.05;;;1.02;;
69981;SDS011;57319;56.274;43.980;2022-09-01T02:41:47;2.75;;;1.10;;
69981;SDS011;57319;56.274;43.980;2022-09-01T02:44:13;1.58;;;1.45;;
69981;SDS011;57319;56.274;43.980;2022-09-01T02:46:40;6.22;;;1.10;;
69981;SDS011;57319;56.274;43.980;2022-09-01T02:49:08;2.50;;;1.20;;
69981;SDS011;57319;56.274;43.980;2022-09-01T02:51:42;2.40;;;1.60;;
69981;SDS011;57319;56.274;43.980;2022-09-01T02:54:09;9.48;;;2.58;;
69981;SDS011;57319;56.274;43.980;2022-09-01T02:56:39;2.95;;;2.05;;
69981;SDS011;57319;56.274;43.980;2022-09-01T02:59:05;6.95;;;2.40;;
69981;SDS011;57319;56.274;43.980;2022-09-01T03:01:36;3.58;;;2.45;;
69981;SDS011;57319;56.274;43.980;2022-09-01T03:04:03;5.68;;;2.35;;
69981;SDS011;57319;56.274;43.980;2022-09-01T03:06:30;5.70;;;2.22;;
69981;SDS011;57319;56.274;43.980;2022-09-01T03:08:58;3.63;;;2.00;;
69981;SDS011;57319;56.274;43.980;2022-09-01T03:11:25;2.33;;;2.15;;
69981;SDS011;57319;56.274;43.980;2022-09-01T03:13:53;2.78;;;1.40;;
69981;SDS011;57319;56.274;43.980;2022-09-01T03:16:19;5.70;;;1.52;;
69981;SDS011;57319;56.274;43.980;2022-09-01T03:18:46;1.85;;;1.20;;
69981;SDS011;57319;56.274;43.980;2022-09-01T03:21:13;6.05;;;1.40;;
69981;SDS011;57319;56.274;43.980;2022-09-01T03:23:42;8.23;;;1.23;;
69981;SDS011;57319;56.274;43.980;2022-09-01T03:26:09;2.75;;;1.02;;
69981;SDS011;57319;56.274;43.980;2022-09-01T03:28:35;12.32;;;1.15;;
69981;SDS011;57319;56.274;43.980;2022-09-01T03:31:04;11.25;;;1.50;;
69981;SDS011;57319;56.274;43.980;2022-09-01T03:33:30;10.38;;;1.80;;
69981;SDS011;57319;56.274;43.980;2022-09-01T03:35:57;8.73;;;1.27;;
69981;SDS011;57319;56.274;43.980;2022-09-01T03:38:23;3.05;;;0.70;;
69981;SDS011;57319;56.274;43.980;2022-09-01T03:40:50;13.60;;;1.05;;
69981;SDS011;57319;56.274;43.980;2022-09-01T03:43:18;1.63;;;0.77;;
69981;SDS011;57319;56.274;43.980;2022-09-01T03:45:47;2.30;;;0.90;;
69981;SDS011;57319;56.274;43.980;2022-09-01T03:48:13;1.75;;;0.80;;
69981;SDS011;57319;56.274;43.980;2022-09-01T03:50:41;3.90;;;0.90;;
69981;SDS011;57319;56.274;43.980;2022-09-01T03:53:13;1.98;;;0.60;;
69981;SDS011;57319;56.274;43.980;2022-09-01T03:55:42;0.80;;;0.80;;
69981;SDS011;57319;56.274;43.980;2022-09-01T03:58:09;10.38;;;0.90;;
69981;SDS011;57319;56.274;43.980;2022-09-01T04:00:40;2.35;;;1.33;;
69981;SDS011;57319;56.274;43.980;2022-09-01T04:03:09;8.77;;;1.02;;
69981;SDS011;57319;56.274;43.980;2022-09-01T04:05:37;0.77;;;0.77;;
69981;SDS011;57319;56.274;43.980;2022-09-01T04:08:06;0.80;;;0.80;;
69981;SDS011;57319;56.274;43.980;2022-09-01T04:10:36;1.05;;;0.95;;
69981;SDS011;57319;56.274;43.980;2022-09-01T04:13:14;4.20;;;0.88;;
69981;SDS011;57319;56.274;43.980;2022-09-01T04:15:45;3.00;;;1.23;;
69981;SDS011;57319;56.274;43.980;2022-09-01T04:18:11;6.13;;;1.13;;
69981;SDS011;57319;56.274;43.980;2022-09-01T04:20:48;3.08;;;1.15;;
69981;SDS011;57319;56.274;43.980;2022-09-01T04:23:25;1.95;;;0.88;;
69981;SDS011;57319;56.274;43.980;2022-09-01T04:25:58;5.38;;;1.00;;
69981;SDS011;57319;56.274;43.980;2022-09-01T04:28:34;1.20;;;1.10;;
69981;SDS011;57319;56.274;43.980;2022-09-01T04:31:04;1.17;;;0.90;;
69981;SDS011;57319;56.274;43.980;2022-09-01T04:33:34;10.18;;;1.08;;
69981;SDS011;57319;56.274;43.980;2022-09-01T04:36:17;4.60;;;1.25;;
69981;SDS011;57319;56.274;43.980;2022-09-01T04:38:50;0.97;;;0.80;;
69981;SDS011;57319;56.274;43.980;2022-09-01T04:41:20;7.07;;;1.35;;
69981;SDS011;57319;56.274;43.980;2022-09-01T04:43:48;3.45;;;1.00;;
69981;SDS011;57319;56.274;43.980;2022-09-01T04:46:17;5.82;;;0.80;;
69981;SDS011;57319;56.274;43.980;2022-09-01T04:48:45;1.65;;;0.82;;
69981;SDS011;57319;56.274;43.980;2022-09-01T04:51:11;6.30;;;1.02;;
69981;SDS011;57319;56.274;43.980;2022-09-01T04:53:39;0.80;;;0.80;;
69981;SDS011;57319;56.274;43.980;2022-09-01T04:56:17;3.92;;;1.70;;
69981;SDS011;57319;56.274;43.980;2022-09-01T04:58:45;5.35;;;1.20;;
69981;SDS011;57319;56.274;43.980;2022-09-01T05:01:15;2.03;;;0.93;;
69981;SDS011;57319;56.274;43.980;2022-09-01T05:03:43;3.13;;;0.98;;
69981;SDS011;57319;56.274;43.980;2022-09-01T05:06:18;7.40;;;1.80;;
69981;SDS011;57319;56.274;43.980;2022-09-01T05:08:44;2.17;;;1.23;;
69981;SDS011;57319;56.274;43.980;2022-09-01T05:11:11;3.17;;;0.95;;
69981;SDS011;57319;56.274;43.980;2022-09-01T05:13:41;0.80;;;0.80;;
69981;SDS011;57319;56.274;43.980;2022-09-01T05:16:10;4.15;;;1.10;;
69981;SDS011;57319;56.274;43.980;2022-09-01T05:18:39;1.45;;;1.00;;
69981;SDS011;57319;56.274;43.980;2022-09-01T05:21:09;4.57;;;1.10;;
69981;SDS011;57319;56.274;43.980;2022-09-01T05:23:35;2.65;;;1.00;;
69981;SDS011;57319;56.274;43.980;2022-09-01T05:26:05;11.63;;;1.08;;
69981;SDS011;57319;56.274;43.980;2022-09-01T05:28:41;6.55;;;1.35;;
69981;SDS011;57319;56.274;43.980;2022-09-01T05:31:08;0.85;;;0.85;;
69981;SDS011;57319;56.274;43.980;2022-09-01T05:33:35;6.53;;;1.00;;
69981;SDS011;57319;56.274;43.980;2022-09-01T05:36:02;7.15;;;1.30;;
69981;SDS011;57319;56.274;43.980;2022-09-01T05:38:32;4.50;;;0.90;;
69981;SDS011;57319;56.274;43.980;2022-09-01T05:41:02;3.95;;;1.00;;
69981;SDS011;57319;56.274;43.980;2022-09-01T05:43:33;0.70;;;0.70;;
69981;SDS011;57319;56.274;43.980;2022-09-01T05:45:59;0.85;;;0.70;;
69981;SDS011;57319;56.274;43.980;2022-09-01T05:48:28;1.23;;;1.13;;
69981;SDS011;57319;56.274;43.980;2022-09-01T05:50:55;2.95;;;0.98;;
69981;SDS011;57319;56.274;43.980;2022-09-01T05:53:24;5.28;;;0.90;;
69981;SDS011;57319;56.274;43.980;2022-09-01T05:55:53;2.65;;;0.80;;
69981;SDS011;57319;56.274;43.980;2022-09-01T05:58:21;9.60;;;0.82;;
69981;SDS011;57319;56.274;43.980;2022-09-01T06:00:50;0.40;;;0.40;;
69981;SDS011;57319;56.274;43.980;2022-09-01T06:03:19;0.43;;;0.43;;
69981;SDS011;57319;56.274;43.980;2022-09-01T06:05:46;4.68;;;0.73;;
69981;SDS011;57319;56.274;43.980;2022-09-01T06:08:23;5.72;;;0.73;;
69981;SDS011;57319;56.274;43.980;2022-09-01T06:10:50;4.65;;;1.35;;
69981;SDS011;57319;56.274;43.980;2022-09-01T06:13:17;6.50;;;0.75;;
69981;SDS011;57319;56.274;43.980;2022-09-01T06:15:49;2.33;;;0.40;;
69981;SDS011;57319;56.274;43.980;2022-09-01T06:18:19;1.88;;;0.50;;
69981;SDS011;57319;56.274;43.980;2022-09-01T06:20:46;7.68;;;0.50;;
69981;SDS011;57319;56.274;43.980;2022-09-01T06:23:13;4.07;;;0.50;;
69981;SDS011;57319;56.274;43.980;2022-09-01T06:25:42;3.40;;;0.50;;
69981;SDS011;57319;56.274;43.980;2022-09-01T06:28:11;7.95;;;0.55;;
69981;SDS011;57319;56.274;43.980;2022-09-01T06:30:38;2.42;;;0.50;;
69981;SDS011;57319;56.274;43.980;2022-09-01T06:33:05;2.17;;;0.65;;
69981;SDS011;57319;56.274;43.980;2022-09-01T06:35:38;1.42;;;0.60;;
69981;SDS011;57319;56.274;43.980;2022-09-01T06:38:07;2.13;;;0.32;;
69981;SDS011;57319;56.274;43.980;2022-09-01T06:40:34;0.60;;;0.60;;
69981;SDS011;57319;56.274;43.980;2022-09-01T06:43:07;4.57;;;0.70;;
69981;SDS011;57319;56.274;43.980;2022-09-01T06:45:38;1.90;;;0.65;;
69981;SDS011;57319;56.274;43.980;2022-09-01T06:48:06;0.60;;;0.60;;
69981;SDS011;57319;56.274;43.980;2022-09-01T06:50:32;6.72;;;0.60;;
69981;SDS011;57319;56.274;43.980;2022-09-01T06:52:58;0.80;;;0.60;;
69981;SDS011;57319;56.274;43.980;2022-09-01T06:55:37;0.82;;;0.55;;
69981;SDS011;57319;56.274;43.980;2022-09-01T06:58:05;1.52;;;0.70;;
69981;SDS011;57319;56.274;43.980;2022-09-01T07:00:32;15.38;;;3.00;;
69981;SDS011;57319;56.274;43.980;2022-09-01T07:03:06;5.05;;;0.90;;
69981;SDS011;57319;56.274;43.980;2022-09-01T07:05:47;0.50;;;0.50;;
69981;SDS011;57319;56.274;43.980;2022-09-01T07:08:15;1.95;;;0.68;;
69981;SDS011;57319;56.274;43.980;2022-09-01T07:10:47;0.60;;;0.60;;
69981;SDS011;57319;56.274;43.980;2022-09-01T07:13:17;3.95;;;1.00;;
69981;SDS011;57319;56.274;43.980;2022-09-01T07:15:51;1.17;;;1.02;;
69981;SDS011;57319;56.274;43.980;2022-09-01T07:18:19;1.45;;;0.70;;
69981;SDS011;57319;56.274;43.980;2022-09-01T07:20:49;1.48;;;0.90;;
69981;SDS011;57319;56.274;43.980;2022-09-01T07:23:17;6.95;;;1.13;;
69981;SDS011;57319;56.274;43.980;2022-09-01T07:25:49;1.83;;;1.52;;
69981;SDS011;57319;56.274;43.980;2022-09-01T07:28:19;1.98;;;0.73;;
69981;SDS011;57319;56.274;43.980;2022-09-01T07:30:46;4.68;;;0.77;;
69981;SDS011;57319;56.274;43.980;2022-09-01T07:33:13;2.25;;;0.80;;
69981;SDS011;57319;56.274;43.980;2022-09-01T07:35:41;2.13;;;0.70;;
69981;SDS011;57319;56.274;43.980;2022-09-01T07:38:07;3.08;;;0.55;;
69981;SDS011;57319;56.274;43.980;2022-09-01T07:40:37;3.88;;;0.93;;
69981;SDS011;57319;56.274;43.980;2022-09-01T07:43:11;4.35;;;0.80;;
69981;SDS011;57319;56.274;43.980;2022-09-01T07:45:44;2.30;;;0.85;;
69981;SDS011;57319;56.274;43.980;2022-09-01T07:48:13;7.65;;;1.00;;
69981;SDS011;57319;56.274;43.980;2022-09-01T07:50:42;1.63;;;0.88;;
69981;SDS011;57319;56.274;43.980;2022-09-01T07:53:12;0.88;;;0.88;;
69981;SDS011;57319;56.274;43.980;2022-09-01T07:55:43;2.75;;;0.90;;
69981;SDS011;57319;56.274;43.980;2022-09-01T07:58:11;2.15;;;0.65;;
69981;SDS011;57319;56.274;43.980;2022-09-01T08:00:40;2.50;;;0.77;;
69981;SDS011;57319;56.274;43.980;2022-09-01T08:03:10;2.28;;;0.75;;
69981;SDS011;57319;56.274;43.980;2022-09-01T08:05:37;1.35;;;0.60;;
69981;SDS011;57319;56.274;43.980;2022-09-01T08:08:03;5.00;;;0.50;;
69981;SDS011;57319;56.274;43.980;2022-09-01T08:10:29;0.95;;;0.57;;
69981;SDS011;57319;56.274;43.980;2022-09-01T08:12:55;2.25;;;0.70;;
69981;SDS011;57319;56.274;43.980;2022-09-01T08:15:21;0.60;;;0.60;;
69981;SDS011;57319;56.274;43.980;2022-09-01T08:17:47;0.70;;;0.70;;
69981;SDS011;57319;56.274;43.980;2022-09-01T08:20:13;2.80;;;0.63;;
69981;SDS011;57319;56.274;43.980;2022-09-01T08:22:39;0.55;;;0.50;;
69981;SDS011;57319;56.274;43.980;2022-09-01T08:25:06;1.90;;;0.90;;
69981;SDS011;57319;56.274;43.980;2022-09-01T08:27:34;4.18;;;0.70;;
69981;SDS011;57319;56.274;43.980;2022-09-01T08:30:06;3.10;;;0.98;;
69981;SDS011;57319;56.274;43.980;2022-09-01T08:32:37;3.20;;;0.80;;
69981;SDS011;57319;56.274;43.980;2022-09-01T08:35:07;3.40;;;0.55;;
69981;SDS011;57319;56.274;43.980;2022-09-01T08:37:37;0.63;;;0.50;;
69981;SDS011;57319;56.274;43.980;2022-09-01T08:40:04;1.00;;;0.50;;
69981;SDS011;57319;56.274;43.980;2022-09-01T08:48:52;0.98;;;0.50;;
69981;SDS011;57319;56.274;43.980;2022-09-01T08:57:01;5.00;;;0.60;;
69981;SDS011;57319;56.274;43.980;2022-09-01T08:59:32;0.50;;;0.50;;
69981;SDS011;57319;56.274;43.980;2022-09-01T09:07:20;3.13;;;0.70;;
69981;SDS011;57319;56.274;43.980;2022-09-01T09:09:55;5.20;;;1.40;;
69981;SDS011;57319;56.274;43.980;2022-09-01T09:12:48;3.00;;;1.08;;
69981;SDS011;57319;56.274;43.980;2022-09-01T09:17:55;5.37;;;1.13;;
69981;SDS011;57319;56.274;43.980;2022-09-01T09:20:31;7.03;;;1.20;;
69981;SDS011;57319;56.274;43.980;2022-09-01T09:22:57;4.22;;;0.85;;
69981;SDS011;57319;56.274;43.980;2022-09-01T09:25:29;4.40;;;0.93;;
69981;SDS011;57319;56.274;43.980;2022-09-01T09:27:55;2.65;;;0.90;;
69981;SDS011;57319;56.274;43.980;2022-09-01T09:30:22;0.85;;;0.85;;
69981;SDS011;57319;56.274;43.980;2022-09-01T09:32:56;3.70;;;1.10;;
69981;SDS011;57319;56.274;43.980;2022-09-01T09:35:35;1.73;;;1.25;;
69981;SDS011;57319;56.274;43.980;2022-09-01T09:46:26;1.98;;;1.05;;
69981;SDS011;57319;56.274;43.980;2022-09-01T09:56:42;1.23;;;0.77;;
69981;SDS011;57319;56.274;43.980;2022-09-01T10:01:54;1.75;;;1.00;;
69981;SDS011;57319;56.274;43.980;2022-09-01T10:04:38;2.58;;;1.00;;
69981;SDS011;57319;56.274;43.980;2022-09-01T10:07:22;1.90;;;0.80;;
69981;SDS011;57319;56.274;43.980;2022-09-01T10:09:55;1.55;;;0.70;;
69981;SDS011;57319;56.274;43.980;2022-09-01T10:12:24;0.70;;;0.70;;
69981;SDS011;57319;56.274;43.980;2022-09-01T10:14:53;4.68;;;0.85;;
69981;SDS011;57319;56.274;43.980;2022-09-01T10:17:25;13.15;;;2.25;;
69981;SDS011;57319;56.274;43.980;2022-09-01T10:19:56;3.78;;;1.45;;
69981;SDS011;57319;56.274;43.980;2022-09-01T10:22:29;4.72;;;1.85;;
69981;SDS011;57319;56.274;43.980;2022-09-01T10:24:57;2.85;;;1.00;;
69981;SDS011;57319;56.274;43.980;2022-09-01T10:27:26;1.42;;;0.85;;
69981;SDS011;57319;56.274;43.980;2022-09-01T10:29:56;7.15;;;1.02;;
69981;SDS011;57319;56.274;43.980;2022-09-01T10:32:33;8.02;;;1.30;;
69981;SDS011;57319;56.274;43.980;2022-09-01T10:35:09;2.85;;;0.90;;
69981;SDS011;57319;56.274;43.980;2022-09-01T10:37:40;2.65;;;1.00;;
69981;SDS011;57319;56.274;43.980;2022-09-01T10:40:15;4.80;;;1.02;;
69981;SDS011;57319;56.274;43.980;2022-09-01T10:42:45;1.08;;;0.90;;
69981;SDS011;57319;56.274;43.980;2022-09-01T10:45:16;9.10;;;1.10;;
69981;SDS011;57319;56.274;43.980;2022-09-01T10:47:55;1.50;;;0.80;;
69981;SDS011;57319;56.274;43.980;2022-09-01T10:50:41;7.05;;;0.75;;
69981;SDS011;57319;56.274;43.980;2022-09-01T10:53:07;0.55;;;0.55;;
69981;SDS011;57319;56.274;43.980;2022-09-01T10:55:34;6.78;;;0.80;;
69981;SDS011;57319;56.274;43.980;2022-09-01T10:58:11;4.78;;;0.70;;
69981;SDS011;57319;56.274;43.980;2022-09-01T11:00:43;2.75;;;0.65;;
69981;SDS011;57319;56.274;43.980;2022-09-01T11:19:23;2.85;;;1.17;;
69981;SDS011;57319;56.274;43.980;2022-09-01T11:27:10;4.78;;;0.52;;
69981;SDS011;57319;56.274;43.980;2022-09-01T11:30:00;3.22;;;0.60;;
69981;SDS011;57319;56.274;43.980;2022-09-01T11:32:34;1.83;;;0.63;;
69981;SDS011;57319;56.274;43.980;2022-09-01T11:35:03;4.95;;;0.98;;
69981;SDS011;57319;56.274;43.980;2022-09-01T11:37:41;1.50;;;1.00;;
69981;SDS011;57319;56.274;43.980;2022-09-01T11:40:42;4.00;;;1.17;;
69981;SDS011;57319;56.274;43.980;2022-09-01T11:43:14;3.20;;;0.88;;
69981;SDS011;57319;56.274;43.980;2022-09-01T11:48:53;5.53;;;1.08;;
69981;SDS011;57319;56.274;43.980;2022-09-01T11:51:45;3.90;;;0.75;;
69981;SDS011;57319;56.274;43.980;2022-09-01T11:54:16;3.75;;;1.00;;
69981;SDS011;57319;56.274;43.980;2022-09-01T11:56:42;7.47;;;1.02;;
69981;SDS011;57319;56.274;43.980;2022-09-01T11:59:08;19.35;;;1.70;;
69981;SDS011;57319;56.274;43.980;2022-09-01T12:01:36;3.40;;;0.82;;
69981;SDS011;57319;56.274;43.980;2022-09-01T12:04:29;11.18;;;1.10;;
69981;SDS011;57319;56.274;43.980;2022-09-01T12:07:05;6.38;;;2.17;;
69981;SDS011;57319;56.274;43.980;2022-09-01T12:09:41;25.45;;;2.75;;
69981;SDS011;57319;56.274;43.980;2022-09-01T12:12:24;29.88;;;2.83;;
69981;SDS011;57319;56.274;43.980;2022-09-01T12:14:57;68.63;;;5.35;;
69981;SDS011;57319;56.274;43.980;2022-09-01T12:17:24;11.20;;;1.05;;
69981;SDS011;57319;56.274;43.980;2022-09-01T12:19:49;7.20;;;1.45;;
69981;SDS011;57319;56.274;43.980;2022-09-01T12:22:16;1.83;;;0.90;;
69981;SDS011;57319;56.274;43.980;2022-09-01T12:24:45;5.20;;;1.25;;
69981;SDS011;57319;56.274;43.980;2022-09-01T12:27:13;2.83;;;1.20;;
69981;SDS011;57319;56.274;43.980;2022-09-01T12:29:39;4.07;;;1.25;;
69981;SDS011;57319;56.274;43.980;2022-09-01T12:32:05;5.55;;;0.85;;
69981;SDS011;57319;56.274;43.980;2022-09-01T12:37:40;10.52;;;1.30;;
69981;SDS011;57319;56.274;43.980;2022-09-01T12:39:52;1.35;;;0.90;;
69981;SDS011;57319;56.274;43.980;2022-09-01T12:52:26;13.85;;;3.92;;
69981;SDS011;57319;56.274;43.980;2022-09-01T12:58:08;8.25;;;2.85;;
69981;SDS011;57319;56.274;43.980;2022-09-01T13:00:22;6.22;;;2.30;;
69981;SDS011;57319;56.274;43.980;2022-09-01T13:05:26;36.05;;;5.78;;
69981;SDS011;57319;56.274;43.980;2022-09-01T13:07:58;14.02;;;5.60;;
69981;SDS011;57319;56.274;43.980;2022-09-01T13:10:29;5.35;;;2.22;;
69981;SDS011;57319;56.274;43.980;2022-09-01T13:12:58;17.58;;;1.92;;
69981;SDS011;57319;56.274;43.980;2022-09-01T13:15:24;3.50;;;1.08;;
69981;SDS011;57319;56.274;43.980;2022-09-01T13:17:51;0.90;;;0.90;;
69981;SDS011;57319;56.274;43.980;2022-09-01T13:20:17;4.32;;;0.95;;
69981;SDS011;57319;56.274;43.980;2022-09-01T13:22:43;9.65;;;1.30;;
69981;SDS011;57319;56.274;43.980;2022-09-01T13:25:10;6.20;;;1.05;;
69981;SDS011;57319;56.274;43.980;2022-09-01T13:27:37;9.52;;;1.58;;
69981;SDS011;57319;56.274;43.980;2022-09-01T13:30:09;5.20;;;1.42;;
69981;SDS011;57319;56.274;43.980;2022-09-01T13:32:37;5.43;;;0.90;;
69981;SDS011;57319;56.274;43.980;2022-09-01T13:35:03;7.55;;;0.70;;
69981;SDS011;57319;56.274;43.980;2022-09-01T13:37:29;5.65;;;1.08;;
69981;SDS011;57319;56.274;43.980;2022-09-01T13:39:55;12.05;;;1.50;;
69981;SDS011;57319;56.274;43.980;2022-09-01T13:42:22;10.63;;;2.03;;
69981;SDS011;57319;56.274;43.980;2022-09-01T13:44:47;1.90;;;0.70;;
69981;SDS011;57319;56.274;43.980;2022-09-01T13:47:13;6.90;;;1.52;;
69981;SDS011;57319;56.274;43.980;2022-09-01T13:49:39;5.63;;;1.33;;
69981;SDS011;57319;56.274;43.980;2022-09-01T13:52:04;7.55;;;1.00;;
69981;SDS011;57319;56.274;43.980;2022-09-01T13:54:30;5.68;;;1.08;;
69981;SDS011;57319;56.274;43.980;2022-09-01T13:56:56;1.48;;;1.00;;
69981;SDS011;57319;56.274;43.980;2022-09-01T13:59:23;4.43;;;1.20;;
69981;SDS011;57319;56.274;43.980;2022-09-01T14:01:48;4.15;;;1.25;;
69981;SDS011;57319;56.274;43.980;2022-09-01T14:04:14;0.77;;;0.77;;
69981;SDS011;57319;56.274;43.980;2022-09-01T14:06:40;2.72;;;0.90;;
69981;SDS011;57319;56.274;43.980;2022-09-01T14:09:12;5.60;;;0.93;;
69981;SDS011;57319;56.274;43.980;2022-09-01T14:11:38;6.20;;;0.93;;
69981;SDS011;57319;56.274;43.980;2022-09-01T14:14:04;4.63;;;0.90;;
69981;SDS011;57319;56.274;43.980;2022-09-01T14:16:31;0.95;;;0.90;;
69981;SDS011;57319;56.274;43.980;2022-09-01T14:18:57;9.32;;;1.02;;
69981;SDS011;57319;56.274;43.980;2022-09-01T14:21:23;0.82;;;0.82;;
69981;SDS011;57319;56.274;43.980;2022-09-01T14:23:49;0.85;;;0.85;;
69981;SDS011;57319;56.274;43.980;2022-09-01T14:26:15;6.72;;;1.13;;
69981;SDS011;57319;56.274;43.980;2022-09-01T14:28:41;7.55;;;1.40;;
69981;SDS011;57319;56.274;43.980;2022-09-01T14:31:10;8.82;;;1.35;;
69981;SDS011;57319;56.274;43.980;2022-09-01T14:33:37;5.93;;;1.20;;
69981;SDS011;57319;56.274;43.980;2022-09-01T14:36:05;7.55;;;1.15;;
69981;SDS011;57319;56.274;43.980;2022-09-01T14:38:31;0.88;;;0.80;;
69981;SDS011;57319;56.274;43.980;2022-09-01T14:40:57;11.95;;;2.33;;
69981;SDS011;57319;56.274;43.980;2022-09-01T14:43:23;7.65;;;1.70;;
69981;SDS011;57319;56.274;43.980;2022-09-01T14:46:00;7.05;;;1.20;;
69981;SDS011;57319;56.274;43.980;2022-09-01T14:48:34;3.08;;;1.20;;
69981;SDS011;57319;56.274;43.980;2022-09-01T14:51:00;5.38;;;2.08;;
69981;SDS011;57319;56.274;43.980;2022-09-01T14:53:26;13.32;;;1.38;;
69981;SDS011;57319;56.274;43.980;2022-09-01T14:55:54;5.38;;;1.15;;
69981;SDS011;57319;56.274;43.980;2022-09-01T14:58:20;6.15;;;1.52;;
69981;SDS011;57319;56.274;43.980;2022-09-01T15:00:46;5.88;;;1.38;;
69981;SDS011;57319;56.274;43.980;2022-09-01T15:03:12;16.02;;;1.40;;
69981;SDS011;57319;56.274;43.980;2022-09-01T15:05:38;1.83;;;1.52;;
69981;SDS011;57319;56.274;43.980;2022-09-01T15:08:05;6.05;;;1.10;;
69981;SDS011;57319;56.274;43.980;2022-09-01T15:10:32;3.25;;;1.60;;
69981;SDS011;57319;56.274;43.980;2022-09-01T15:12:59;1.55;;;1.25;;
69981;SDS011;57319;56.274;43.980;2022-09-01T15:15:26;1.27;;;1.27;;
69981;SDS011;57319;56.274;43.980;2022-09-01T15:17:53;1.50;;;1.40;;
69981;SDS011;57319;56.274;43.980;2022-09-01T15:20:38;8.60;;;1.60;;
69981;SDS011;57319;56.274;43.980;2022-09-01T15:23:21;8.18;;;1.55;;
69981;SDS011;57319;56.274;43.980;2022-09-01T15:26:14;6.00;;;1.50;;
69981;SDS011;57319;56.274;43.980;2022-09-01T15:28:56;2.58;;;1.40;;
69981;SDS011;57319;56.274;43.980;2022-09-01T15:31:47;15.45;;;1.45;;
69981;SDS011;57319;56.274;43.980;2022-09-01T15:34:16;10.75;;;1.27;;
69981;SDS011;57319;56.274;43.980;2022-09-01T15:36:47;6.20;;;1.33;;
69981;SDS011;57319;56.274;43.980;2022-09-01T15:39:34;4.70;;;1.70;;
69981;SDS011;57319;56.274;43.980;2022-09-01T15:42:15;2.58;;;1.38;;
69981;SDS011;57319;56.274;43.980;2022-09-01T15:44:50;1.05;;;1.00;;
69981;SDS011;57319;56.274;43.980;2022-09-01T15:47:22;4.88;;;0.95;;
69981;SDS011;57319;56.274;43.980;2022-09-01T15:49:52;6.80;;;1.20;;
69981;SDS011;57319;56.274;43.980;2022-09-01T15:52:26;4.77;;;0.90;;
69981;SDS011;57319;56.274;43.980;2022-09-01T15:54:56;6.57;;;1.45;;
69981;SDS011;57319;56.274;43.980;2022-09-01T15:57:57;6.45;;;1.00;;
69981;SDS011;57319;56.274;43.980;2022-09-01T16:00:42;5.97;;;1.10;;
69981;SDS011;57319;56.274;43.980;2022-09-01T16:03:20;5.07;;;1.02;;
69981;SDS011;57319;56.274;43.980;2022-09-01T16:06:14;4.90;;;1.27;;
69981;SDS011;57319;56.274;43.980;2022-09-01T16:08:48;2.58;;;1.33;;
69981;SDS011;57319;56.274;43.980;2022-09-01T16:11:54;7.38;;;1.65;;
69981;SDS011;57319;56.274;43.980;2022-09-01T16:14:27;5.47;;;1.60;;